createdAt,value
2022-12-13T00:01:47.058Z,-3.10
2022-12-13T00:04:14.428Z,-3.10
2022-12-13T00:06:41.390Z,-3.10
2022-12-13T00:09:08.698Z,-3.10
2022-12-13T00:11:36.007Z,-3.20
2022-12-13T00:14:02.849Z,-3.20
2022-12-13T00:16:29.689Z,-3.20
2022-12-13T00:18:59.171Z,-3.20
2022-12-13T00:21:29.038Z,-3.20
2022-12-13T00:23:56.433Z,-3.20
2022-12-13T00:26:25.612Z,-3.20
2022-12-13T00:28:54.006Z,-3.30
2022-12-13T00:34:10.305Z,-3.30
2022-12-13T00:36:37.110Z,-3.30
2022-12-13T00:39:03.958Z,-3.30
2022-12-13T00:41:35.953Z,-3.30
2022-12-13T00:44:04.189Z,-3.30
2022-12-13T00:46:31.726Z,-3.40
2022-12-13T00:49:01.165Z,-3.40
2022-12-13T00:51:29.765Z,-3.40
2022-12-13T00:53:56.567Z,-3.40
2022-12-13T00:56:25.822Z,-3.40
2022-12-13T00:58:53.637Z,-3.40
2022-12-13T01:01:26.317Z,-3.40
2022-12-13T01:03:58.798Z,-3.40
2022-12-13T01:06:34.156Z,-3.50
2022-12-13T01:09:01.473Z,-3.50
2022-12-13T01:11:28.348Z,-3.50
2022-12-13T01:13:55.144Z,-3.50
2022-12-13T01:16:22.008Z,-3.50
2022-12-13T01:18:48.838Z,-3.60
2022-12-13T01:21:18.158Z,-3.60
2022-12-13T01:23:45.276Z,-3.60
2022-12-13T01:26:14.572Z,-3.60
2022-12-13T01:28:41.701Z,-3.60
2022-12-13T01:31:11.950Z,-3.60
2022-12-13T01:33:39.111Z,-3.60
2022-12-13T01:36:08.910Z,-3.70
2022-12-13T01:38:37.786Z,-3.70
2022-12-13T01:41:16.645Z,-3.70
2022-12-13T01:43:44.817Z,-3.70
2022-12-13T01:46:12.362Z,-3.70
2022-12-13T01:49:19.918Z,-3.80
2022-12-13T01:51:50.176Z,-3.80
2022-12-13T01:54:21.987Z,-3.80
2022-12-13T01:56:54.233Z,-3.80
2022-12-13T01:59:28.376Z,-3.90
2022-12-13T02:02:00.948Z,-3.90
2022-12-13T02:04:46.961Z,-3.90
2022-12-13T02:07:23.169Z,-3.90
2022-12-13T02:09:57.210Z,-3.90
2022-12-13T02:12:30.682Z,-4.00
2022-12-13T02:15:11.715Z,-4.00
2022-12-13T02:18:02.186Z,-4.00
2022-12-13T02:21:06.529Z,-4.00
2022-12-13T02:24:23.714Z,-4.00
2022-12-13T02:27:33.661Z,-4.00
2022-12-13T02:30:22.794Z,-4.10
2022-12-13T02:33:04.107Z,-4.10
2022-12-13T02:35:38.673Z,-4.10
2022-12-13T02:38:26.951Z,-4.10
2022-12-13T02:41:15.857Z,-4.20
2022-12-13T02:44:22.169Z,-4.20
2022-12-13T02:46:54.963Z,-4.20
2022-12-13T02:49:24.209Z,-4.20
2022-12-13T02:51:52.788Z,-4.20
2022-12-13T02:54:19.652Z,-4.20
2022-12-13T02:57:00.128Z,-4.30
2022-12-13T02:59:36.364Z,-4.30
2022-12-13T03:02:31.235Z,-4.30
2022-12-13T03:05:36.026Z,-4.30
2022-12-13T03:08:14.520Z,-4.30
2022-12-13T03:10:57.098Z,-4.40
2022-12-13T03:13:44.460Z,-4.40
2022-12-13T03:16:33.856Z,-4.40
2022-12-13T03:19:06.487Z,-4.50
2022-12-13T03:21:47.018Z,-4.50
2022-12-13T03:24:17.921Z,-4.50
2022-12-13T03:26:45.408Z,-4.50
2022-12-13T03:29:12.187Z,-4.50
2022-12-13T03:31:39.003Z,-4.50
2022-12-13T03:34:05.903Z,-4.50
2022-12-13T03:36:32.928Z,-4.50
2022-12-13T03:38:59.814Z,-4.60
2022-12-13T03:41:31.759Z,-4.60
2022-12-13T03:44:05.675Z,-4.60
2022-12-13T03:46:32.801Z,-4.60
2022-12-13T03:48:59.638Z,-4.60
2022-12-13T03:51:26.403Z,-4.60
2022-12-13T03:53:53.145Z,-4.60
2022-12-13T03:56:19.885Z,-4.60
2022-12-13T03:58:46.605Z,-4.60
2022-12-13T04:01:15.814Z,-4.60
2022-12-13T04:03:46.330Z,-4.60
2022-12-13T04:06:22.511Z,-4.70
2022-12-13T04:08:51.421Z,-4.70
2022-12-13T04:11:43.217Z,-4.60
2022-12-13T04:14:11.919Z,-4.70
2022-12-13T04:16:38.861Z,-4.70
2022-12-13T04:19:05.664Z,-4.70
2022-12-13T04:21:32.521Z,-4.70
2022-12-13T04:24:00.889Z,-4.70
2022-12-13T04:26:28.640Z,-4.70
2022-12-13T04:28:55.740Z,-4.70
2022-12-13T04:31:23.035Z,-4.70
2022-12-13T04:33:49.869Z,-4.70
2022-12-13T04:36:31.783Z,-4.80
2022-12-13T04:39:00.823Z,-4.70
2022-12-13T04:41:34.245Z,-4.70
2022-12-13T04:44:02.760Z,-4.80
2022-12-13T04:46:29.863Z,-4.80
2022-12-13T04:48:56.606Z,-4.80
2022-12-13T04:51:23.427Z,-4.80
2022-12-13T04:53:50.772Z,-4.80
2022-12-13T04:56:17.493Z,-4.80
2022-12-13T04:58:45.076Z,-4.80
2022-12-13T05:01:12.347Z,-4.80
2022-12-13T05:03:39.614Z,-4.80
2022-12-13T05:06:27.182Z,-4.80
2022-12-13T05:08:54.583Z,-4.80
2022-12-13T05:11:23.023Z,-4.80
2022-12-13T05:13:50.175Z,-4.80
2022-12-13T05:16:17.039Z,-4.80
2022-12-13T05:18:51.768Z,-4.80
2022-12-13T05:21:18.509Z,-4.70
2022-12-13T05:23:45.181Z,-4.70
2022-12-13T05:26:11.915Z,-4.70
2022-12-13T05:28:38.681Z,-4.70
2022-12-13T05:31:23.657Z,-4.70
2022-12-13T05:33:51.903Z,-4.70
2022-12-13T05:36:18.831Z,-4.70
2022-12-13T05:38:45.805Z,-4.70
2022-12-13T05:41:18.393Z,-4.70
2022-12-13T05:43:45.282Z,-4.70
2022-12-13T05:46:15.284Z,-4.70
2022-12-13T05:48:42.311Z,-4.70
2022-12-13T05:51:10.750Z,-4.70
2022-12-13T05:53:40.237Z,-4.70
2022-12-13T05:56:07.514Z,-4.70
2022-12-13T05:58:36.035Z,-4.60
2022-12-13T06:01:14.564Z,-4.60
2022-12-13T06:03:42.148Z,-4.60
2022-12-13T06:06:10.704Z,-4.60
2022-12-13T06:08:37.758Z,-4.60
2022-12-13T06:11:09.900Z,-4.60
2022-12-13T06:13:42.580Z,-4.60
2022-12-13T06:16:22.678Z,-4.60
2022-12-13T06:18:51.396Z,-4.60
2022-12-13T06:21:19.383Z,-4.60
2022-12-13T06:23:46.202Z,-4.60
2022-12-13T06:26:13.449Z,-4.60
2022-12-13T06:28:40.160Z,-4.60
2022-12-13T06:31:06.987Z,-4.60
2022-12-13T06:33:36.808Z,-4.60
2022-12-13T06:36:05.309Z,-4.60
2022-12-13T06:38:32.562Z,-4.60
2022-12-13T06:41:14.736Z,-4.60
2022-12-13T06:43:46.375Z,-4.60
2022-12-13T06:46:14.074Z,-4.60
2022-12-13T06:48:41.224Z,-4.60
2022-12-13T06:51:09.179Z,-4.50
2022-12-13T06:53:37.700Z,-4.60
2022-12-13T06:56:13.010Z,-4.60
2022-12-13T06:58:41.036Z,-4.60
2022-12-13T07:01:14.451Z,-4.60
2022-12-13T07:03:42.813Z,-4.60
2022-12-13T07:06:15.725Z,-4.60
2022-12-13T07:08:44.031Z,-4.60
2022-12-13T07:11:15.665Z,-4.60
2022-12-13T07:13:43.292Z,-4.50
2022-12-13T07:16:11.303Z,-4.60
2022-12-13T07:18:38.667Z,-4.60
2022-12-13T07:21:06.757Z,-4.60
2022-12-13T07:23:35.553Z,-4.60
2022-12-13T07:26:02.619Z,-4.60
2022-12-13T07:28:32.141Z,-4.60
2022-12-13T07:31:02.501Z,-4.50
2022-12-13T07:33:29.822Z,-4.50
2022-12-13T07:36:03.574Z,-4.50
2022-12-13T07:38:30.304Z,-4.60
2022-12-13T07:40:58.131Z,-4.60
2022-12-13T07:43:25.347Z,-4.50
2022-12-13T07:45:52.985Z,-4.60
2022-12-13T07:48:19.787Z,-4.60
2022-12-13T07:50:46.775Z,-4.60
2022-12-13T07:53:22.254Z,-4.60
2022-12-13T07:55:49.136Z,-4.60
2022-12-13T07:58:16.181Z,-4.60
2022-12-13T08:00:46.563Z,-4.60
2022-12-13T08:03:25.654Z,-4.60
2022-12-13T08:06:07.688Z,-4.60
2022-12-13T08:08:34.892Z,-4.60
2022-12-13T08:11:03.713Z,-4.60
2022-12-13T08:13:30.539Z,-4.60
2022-12-13T08:16:02.072Z,-4.60
2022-12-13T08:18:29.767Z,-4.60
2022-12-13T08:21:10.448Z,-4.60
2022-12-13T08:23:50.841Z,-4.60
2022-12-13T08:26:17.672Z,-4.60
2022-12-13T08:28:44.365Z,-4.60
2022-12-13T08:31:12.346Z,-4.60
2022-12-13T08:33:40.624Z,-4.60
2022-12-13T08:36:09.175Z,-4.60
2022-12-13T08:38:36.106Z,-4.60
2022-12-13T08:41:02.803Z,-4.50
2022-12-13T08:43:29.584Z,-4.50
2022-12-13T08:46:01.223Z,-4.50
2022-12-13T08:48:29.045Z,-4.50
2022-12-13T08:51:01.404Z,-4.40
2022-12-13T08:53:31.753Z,-4.40
2022-12-13T08:56:11.602Z,-4.40
2022-12-13T08:58:38.651Z,-4.30
2022-12-13T09:01:07.272Z,-4.30
2022-12-13T09:03:34.275Z,-4.30
2022-12-13T09:06:27.209Z,-4.20
2022-12-13T09:08:55.026Z,-4.20
2022-12-13T09:11:33.147Z,-4.20
2022-12-13T09:14:03.473Z,-4.10
2022-12-13T09:16:35.723Z,-4.10
2022-12-13T09:19:24.705Z,-4.00
2022-12-13T09:21:52.067Z,-4.00
2022-12-13T09:24:24.088Z,-3.90
2022-12-13T09:26:57.265Z,-3.90
2022-12-13T09:29:24.509Z,-3.80
2022-12-13T09:31:53.418Z,-3.80
2022-12-13T09:34:20.559Z,-3.80
2022-12-13T09:36:47.371Z,-3.70
2022-12-13T09:39:14.170Z,-3.70
2022-12-13T09:41:49.493Z,-3.60
2022-12-13T09:44:31.213Z,-3.60
2022-12-13T09:47:13.213Z,-3.50
2022-12-13T09:49:51.818Z,-3.50
2022-12-13T09:52:22.444Z,-3.40
2022-12-13T09:54:53.429Z,-3.30
2022-12-13T09:57:38.408Z,-3.20
2022-12-13T10:00:11.549Z,-3.20
2022-12-13T10:02:48.258Z,-3.10
2022-12-13T10:05:25.339Z,-3.00
2022-12-13T10:08:13.940Z,-3.00
2022-12-13T10:10:40.882Z,-2.90
2022-12-13T10:13:15.008Z,-2.80
2022-12-13T10:15:46.598Z,-2.70
2022-12-13T10:18:20.239Z,-2.70
2022-12-13T10:20:49.373Z,-2.60
2022-12-13T10:23:52.580Z,-2.50
2022-12-13T10:26:23.849Z,-2.40
2022-12-13T10:29:02.930Z,-2.30
2022-12-13T10:31:29.786Z,-2.30
2022-12-13T10:33:57.541Z,-2.20
2022-12-13T10:36:41.437Z,-2.10
2022-12-13T10:39:20.191Z,-2.10
2022-12-13T10:41:47.636Z,-2.00
2022-12-13T10:44:25.243Z,-1.90
2022-12-13T10:47:02.542Z,-1.90
2022-12-13T10:49:46.585Z,-1.80
2022-12-13T10:52:33.623Z,-1.70
2022-12-13T10:55:23.307Z,-1.60
2022-12-13T10:58:02.052Z,-1.50
2022-12-13T11:00:39.823Z,-1.40
2022-12-13T11:03:07.770Z,-1.30
2022-12-13T11:05:36.229Z,-1.30
2022-12-13T11:08:22.267Z,-1.20
2022-12-13T11:11:03.492Z,-1.10
2022-12-13T11:13:51.083Z,-1.00
2022-12-13T11:16:33.654Z,-0.90
2022-12-13T11:19:04.510Z,-0.90
2022-12-13T11:21:34.317Z,-0.80
2022-12-13T11:24:05.377Z,-0.80
2022-12-13T11:26:34.927Z,-0.70
2022-12-13T11:29:40.274Z,-0.60
2022-12-13T11:32:42.540Z,-0.60
2022-12-13T11:35:27.964Z,-0.50
2022-12-13T11:38:30.184Z,-0.50
2022-12-13T11:41:11.388Z,-0.40
2022-12-13T11:43:45.947Z,-0.40
2022-12-13T11:46:29.336Z,-0.30
2022-12-13T11:49:02.863Z,-0.30
2022-12-13T11:51:46.540Z,-0.20
2022-12-13T11:54:34.780Z,-0.20
2022-12-13T11:57:07.874Z,-0.20
2022-12-13T11:59:42.428Z,-0.10
2022-12-13T12:02:21.516Z,-0.10
2022-12-13T12:05:00.398Z,0.00
2022-12-13T12:07:58.410Z,0.00
2022-12-13T12:10:34.732Z,0.00
2022-12-13T12:13:15.913Z,0.10
2022-12-13T12:16:10.652Z,0.10
2022-12-13T12:18:37.486Z,0.10
2022-12-13T12:22:13.272Z,0.10
2022-12-13T12:25:00.296Z,0.10
2022-12-13T12:27:44.977Z,0.10
2022-12-13T12:30:27.268Z,0.10
2022-12-13T12:33:17.275Z,0.20
2022-12-13T12:36:21.941Z,0.20
2022-12-13T12:39:27.031Z,0.20
2022-12-13T12:42:18.722Z,0.20
2022-12-13T12:44:51.311Z,0.30
2022-12-13T12:47:37.339Z,0.30
2022-12-13T12:50:18.494Z,0.30
2022-12-13T12:53:20.524Z,0.40
2022-12-13T12:56:28.756Z,0.40
2022-12-13T12:59:22.187Z,0.40
2022-12-13T13:02:17.522Z,0.40
2022-12-13T13:04:57.961Z,0.50
2022-12-13T13:07:31.855Z,0.50
2022-12-13T13:10:26.320Z,0.50
2022-12-13T13:13:12.362Z,0.50
2022-12-13T13:15:39.921Z,0.50
2022-12-13T13:18:43.558Z,0.50
2022-12-13T13:21:35.274Z,0.60
2022-12-13T13:24:01.995Z,0.60
2022-12-13T13:26:35.924Z,0.60
2022-12-13T13:29:26.713Z,0.60
2022-12-13T13:32:01.908Z,0.60
2022-12-13T13:34:38.582Z,0.60
2022-12-13T13:37:25.549Z,0.60
2022-12-13T13:40:02.628Z,0.60
2022-12-13T13:42:33.411Z,0.60
2022-12-13T13:45:22.712Z,0.60
2022-12-13T13:48:28.425Z,0.60
2022-12-13T13:51:32.796Z,0.60
2022-12-13T13:54:29.913Z,0.60
2022-12-13T13:57:45.554Z,0.60
2022-12-13T14:00:23.146Z,0.60
2022-12-13T14:03:34.274Z,0.60
2022-12-13T14:06:34.079Z,0.60
2022-12-13T14:09:07.514Z,0.60
2022-12-13T14:11:49.825Z,0.60
2022-12-13T14:14:38.614Z,0.60
2022-12-13T14:17:45.536Z,0.60
2022-12-13T14:20:12.264Z,0.60
2022-12-13T14:23:06.040Z,0.60
2022-12-13T14:25:51.256Z,0.60
2022-12-13T14:28:29.299Z,0.60
2022-12-13T14:30:57.298Z,0.60
2022-12-13T14:33:26.620Z,0.50
2022-12-13T14:35:59.723Z,0.50
2022-12-13T14:38:32.081Z,0.50
2022-12-13T14:41:01.450Z,0.50
2022-12-13T14:43:33.579Z,0.50
2022-12-13T14:46:05.964Z,0.40
2022-12-13T14:48:53.977Z,0.50
2022-12-13T14:51:37.459Z,0.50
2022-12-13T14:54:07.946Z,0.40
2022-12-13T14:56:34.775Z,0.50
2022-12-13T14:59:03.969Z,0.40
2022-12-13T15:01:38.458Z,0.40
2022-12-13T15:04:29.423Z,0.40
2022-12-13T15:07:22.554Z,0.40
2022-12-13T15:09:55.055Z,0.40
2022-12-13T15:12:25.115Z,0.30
2022-12-13T15:15:05.401Z,0.30
2022-12-13T15:17:35.750Z,0.30
2022-12-13T15:20:21.046Z,0.20
2022-12-13T15:22:48.476Z,0.20
2022-12-13T15:25:16.262Z,0.20
2022-12-13T15:27:48.494Z,0.20
2022-12-13T15:30:15.768Z,0.10
2022-12-13T15:33:23.520Z,0.10
2022-12-13T15:36:08.722Z,0.10
2022-12-13T15:38:40.137Z,0.00
2022-12-13T15:41:13.463Z,0.00
2022-12-13T15:43:49.650Z,0.00
2022-12-13T15:46:28.532Z,0.00
2022-12-13T15:48:57.504Z,0.00
2022-12-13T15:51:28.881Z,-0.10
2022-12-13T15:54:09.638Z,-0.10
2022-12-13T15:56:58.768Z,-0.10
2022-12-13T15:59:26.730Z,-0.10
2022-12-13T16:01:58.275Z,-0.10
2022-12-13T16:04:28.666Z,-0.20
2022-12-13T16:06:55.845Z,-0.20
2022-12-13T16:09:28.993Z,-0.20
2022-12-13T16:12:00.215Z,-0.20
2022-12-13T16:14:27.080Z,-0.20
2022-12-13T16:16:55.449Z,-0.20
2022-12-13T16:19:22.311Z,-0.30
2022-12-13T16:21:49.840Z,-0.30
2022-12-13T16:24:16.624Z,-0.30
2022-12-13T16:26:48.835Z,-0.30
2022-12-13T16:29:19.450Z,-0.30
2022-12-13T16:31:46.619Z,-0.30
2022-12-13T16:34:14.081Z,-0.30
2022-12-13T16:36:41.064Z,-0.40
2022-12-13T16:39:11.210Z,-0.40
2022-12-13T16:41:40.747Z,-0.40
2022-12-13T16:44:10.648Z,-0.40
2022-12-13T16:47:11.731Z,-0.40
2022-12-13T16:49:29.488Z,-0.40
2022-12-13T16:51:56.638Z,-0.50
2022-12-13T16:54:25.005Z,-0.50
2022-12-13T16:56:53.935Z,-0.50
2022-12-13T16:59:24.205Z,-0.50
2022-12-13T17:01:51.533Z,-0.50
2022-12-13T17:04:22.443Z,-0.50
2022-12-13T17:06:50.676Z,-0.50
2022-12-13T17:09:18.543Z,-0.60
2022-12-13T17:11:45.712Z,-0.60
2022-12-13T17:14:12.534Z,-0.60
2022-12-13T17:16:39.372Z,-0.60
2022-12-13T17:19:06.321Z,-0.60
2022-12-13T17:21:33.082Z,-0.60
2022-12-13T17:24:01.497Z,-0.60
2022-12-13T17:26:29.454Z,-0.70
2022-12-13T17:28:56.226Z,-0.60
2022-12-13T17:31:23.262Z,-0.70
2022-12-13T17:33:50.039Z,-0.70
2022-12-13T17:36:17.162Z,-0.70
2022-12-13T17:38:45.687Z,-0.70
2022-12-13T17:41:13.918Z,-0.70
2022-12-13T17:43:42.227Z,-0.70
2022-12-13T17:46:15.156Z,-0.70
2022-12-13T17:48:42.865Z,-0.70
2022-12-13T17:51:10.973Z,-0.70
2022-12-13T17:53:40.145Z,-0.70
2022-12-13T17:56:09.047Z,-0.70
2022-12-13T17:58:36.085Z,-0.70
2022-12-13T18:01:17.618Z,-0.70
2022-12-13T18:03:44.942Z,-0.70
2022-12-13T18:06:12.031Z,-0.70
2022-12-13T18:08:40.409Z,-0.80
2022-12-13T18:11:32.489Z,-0.70
2022-12-13T18:13:55.876Z,-0.80
2022-12-13T18:16:25.919Z,-0.80
2022-12-13T18:18:57.136Z,-0.80
2022-12-13T18:21:25.119Z,-0.80
2022-12-13T18:23:55.248Z,-0.80
2022-12-13T18:26:23.957Z,-0.80
2022-12-13T18:28:51.336Z,-0.80
2022-12-13T18:31:20.945Z,-0.80
2022-12-13T18:33:49.531Z,-0.80
2022-12-13T18:36:17.170Z,-0.80
2022-12-13T18:38:44.962Z,-0.80
2022-12-13T18:41:14.986Z,-0.90
2022-12-13T18:43:43.020Z,-0.90
2022-12-13T18:46:11.212Z,-0.90
2022-12-13T18:48:38.114Z,-0.90
2022-12-13T18:51:07.655Z,-0.90
2022-12-13T18:53:35.277Z,-0.90
2022-12-13T18:56:04.823Z,-0.80
2022-12-13T18:58:32.803Z,-0.90
2022-12-13T19:00:59.822Z,-0.90
2022-12-13T19:03:27.190Z,-0.90
2022-12-13T19:05:57.395Z,-0.90
2022-12-13T19:08:26.268Z,-0.90
2022-12-13T19:10:54.515Z,-0.90
2022-12-13T19:13:22.970Z,-0.90
2022-12-13T19:15:54.276Z,-1.00
2022-12-13T19:18:21.709Z,-1.00
2022-12-13T19:20:50.515Z,-1.00
2022-12-13T19:23:18.259Z,-1.00
2022-12-13T19:25:45.801Z,-1.00
2022-12-13T19:28:17.404Z,-1.00
2022-12-13T19:30:46.151Z,-1.00
2022-12-13T19:33:14.136Z,-1.00
2022-12-13T19:35:42.544Z,-1.00
2022-12-13T19:38:10.281Z,-1.00
2022-12-13T19:40:41.701Z,-1.00
2022-12-13T19:43:08.736Z,-1.10
2022-12-13T19:45:35.619Z,-1.10
2022-12-13T19:48:02.717Z,-1.10
2022-12-13T19:50:29.984Z,-1.10
2022-12-13T19:52:57.009Z,-1.10
2022-12-13T19:55:23.811Z,-1.10
2022-12-13T19:57:50.594Z,-1.10
2022-12-13T20:00:17.460Z,-1.20
2022-12-13T20:02:44.280Z,-1.20
2022-12-13T20:05:11.083Z,-1.20
2022-12-13T20:07:37.852Z,-1.20
2022-12-13T20:10:05.773Z,-1.30
2022-12-13T20:12:38.957Z,-1.20
2022-12-13T20:15:08.370Z,-1.30
2022-12-13T20:17:35.988Z,-1.30
2022-12-13T20:20:04.057Z,-1.30
2022-12-13T20:22:31.571Z,-1.30
2022-12-13T20:24:58.663Z,-1.30
2022-12-13T20:27:26.943Z,-1.30
2022-12-13T20:29:53.684Z,-1.30
2022-12-13T20:32:21.338Z,-1.30
2022-12-13T20:34:53.238Z,-1.30
2022-12-13T20:37:21.354Z,-1.30
2022-12-13T20:39:48.092Z,-1.30
2022-12-13T20:42:14.921Z,-1.30
2022-12-13T20:44:41.617Z,-1.40
2022-12-13T20:47:08.523Z,-1.40
2022-12-13T20:49:35.419Z,-1.30
2022-12-13T20:52:02.131Z,-1.30
2022-12-13T20:54:28.983Z,-1.30
2022-12-13T20:56:55.795Z,-1.30
2022-12-13T20:59:22.574Z,-1.30
2022-12-13T21:01:49.512Z,-1.30
2022-12-13T21:04:16.934Z,-1.30
2022-12-13T21:06:43.682Z,-1.20
2022-12-13T21:09:11.720Z,-1.20
2022-12-13T21:11:41.284Z,-1.20
2022-12-13T21:14:23.459Z,-1.20
2022-12-13T21:16:54.234Z,-1.20
2022-12-13T21:19:23.727Z,-1.20
2022-12-13T21:21:50.836Z,-1.20
2022-12-13T21:24:19.198Z,-1.10
2022-12-13T21:26:46.066Z,-1.10
2022-12-13T21:29:14.270Z,-1.10
2022-12-13T21:31:43.211Z,-1.10
2022-12-13T21:34:11.773Z,-1.10
2022-12-13T21:36:40.970Z,-1.10
2022-12-13T21:39:12.531Z,-1.10
2022-12-13T21:41:40.280Z,-1.10
2022-12-13T21:44:07.303Z,-1.10
2022-12-13T21:47:10.263Z,-1.00
2022-12-13T21:49:20.934Z,-1.00
2022-12-13T21:51:48.843Z,-1.00
2022-12-13T21:54:16.562Z,-1.00
2022-12-13T21:57:01.803Z,-1.00
2022-12-13T21:59:28.811Z,-1.00
2022-12-13T22:02:14.127Z,-1.00
2022-12-13T22:04:44.749Z,-1.00
2022-12-13T22:07:26.361Z,-1.00
2022-12-13T22:09:53.981Z,-1.00
2022-12-13T22:12:33.387Z,-1.00
2022-12-13T22:15:00.206Z,-1.00
2022-12-13T22:17:35.106Z,-1.00
2022-12-13T22:20:05.845Z,-0.90
2022-12-13T22:22:32.743Z,-0.90
2022-12-13T22:24:59.507Z,-0.90
2022-12-13T22:27:26.521Z,-0.90
2022-12-13T22:29:57.124Z,-0.90
2022-12-13T22:32:27.035Z,-0.90
2022-12-13T22:34:54.099Z,-0.90
2022-12-13T22:37:20.934Z,-0.90
2022-12-13T22:39:48.200Z,-0.90
2022-12-13T22:42:15.584Z,-0.90
2022-12-13T22:44:42.422Z,-0.90
2022-12-13T22:47:09.156Z,-0.90
2022-12-13T22:49:35.957Z,-0.90
2022-12-13T22:52:02.755Z,-0.90
2022-12-13T22:54:29.508Z,-0.90
2022-12-13T22:56:56.313Z,-0.90
2022-12-13T22:59:23.051Z,-0.90
2022-12-13T23:01:49.927Z,-0.90
2022-12-13T23:04:16.750Z,-0.90
2022-12-13T23:06:43.511Z,-0.90
2022-12-13T23:09:14.490Z,-0.90
2022-12-13T23:12:00.565Z,-0.90
2022-12-13T23:14:30.027Z,-0.90
2022-12-13T23:16:56.918Z,-0.90
2022-12-13T23:22:10.727Z,-0.90
2022-12-13T23:24:37.480Z,-0.90
2022-12-13T23:27:04.202Z,-0.90
2022-12-13T23:29:31.359Z,-0.90
2022-12-13T23:31:58.151Z,-0.90
2022-12-13T23:34:25.090Z,-0.90
2022-12-13T23:36:51.794Z,-0.90
2022-12-13T23:39:18.559Z,-0.90
2022-12-13T23:41:45.343Z,-0.90
2022-12-13T23:44:12.147Z,-0.90
2022-12-13T23:46:38.875Z,-0.90
2022-12-13T23:49:06.653Z,-0.90
2022-12-13T23:51:34.637Z,-0.90
2022-12-13T23:54:01.690Z,-0.90
2022-12-13T23:56:29.800Z,-0.90
2022-12-13T23:58:56.780Z,-0.90
